North Woods Beach, Wisconsin
Current Conditions -  °F | °C
As of 1:53 AM on Tuesday 21 Oct 2014 (Local Time) from KHYR Reporting Station
Overcast Overcast  
Wind Chill: 41°   Ceiling: 2800
Heat Index: 45°   Visibility: 10mi
Dew Point: 38°   Wind: 7mph
Humidity: 76%   Direction: 60°ENE
Pressure: 30.13"   Gusts: NA
Location:  46.0387°N, 91.2627°W
Report Text: KHYR 210653Z AUTO 06006KT 10SM OVC028 07/03 A3013 RMK AO2 SLP211 T00720033
Loading
Personal Weather Stations






























Interactive Weather Map New forecast layout! Learn more

10-Day Weather Forecast

Advertisements
Track Severe Weather on mobile